Flight Track Log - Related Links

Times and Time Zones

All times are in EDT time to prevent confusion due to time zone crossing. See the SWA3313 flight status page for this flight to view local times or setup timezone preferences in your user account.

Time Position Orientation Groundspeed Altitude Reporting Facility
EDT Latitude Longitude Course Direction KTS MPH feet Rate Location/Type
Tue 05:36:31 PM 42.9167 -71.4167 216° Southwest 144 166 1,300  Level KA90
Tue 05:37:01 PM 42.9000 -71.4333 216° Southwest 157 181 2,300 2,220 Climbing KA90
Tue 05:38:38 PM 42.9031 -71.5075 273° West 153 176 6,000 3,172 Climbing Boston Center
Tue 05:39:38 PM 42.9503 -71.4275 51° Northeast 159 183 10,600 3,650 Climbing Boston Center
Tue 05:40:38 PM 42.9867 -71.3219 65° Northeast 263 303 13,300 3,250 Climbing Boston Center
Tue 05:41:38 PM 43.0042 -71.1936 79° East 320 368 17,100 3,200 Climbing Boston Center
Tue 05:42:38 PM 42.9922 -71.0661 97° East 360 414 19,700 2,750 Climbing Boston Center
Tue 05:43:38 PM 42.8956 -70.9947 152° Southeast 338 389 22,600 2,700 Climbing Boston Center
Tue 05:44:38 PM 42.7869 -70.9775 173° South 351 404 25,100 2,400 Climbing Boston Center
Tue 05:45:38 PM 42.6731 -71.0367 201° Southwest 353 406 27,400 1,450 Climbing Boston Center
Tue 05:46:38 PM 42.5572 -71.0956 201° Southwest 410 472 28,000 1,100 Climbing Boston Center
Tue 05:47:38 PM 42.4431 -71.1544 201° Southwest 434 499 29,600 1,000 Climbing Boston Center
Tue 05:48:38 PM 42.3819 -71.2878 238° Southwest 414 476 30,000 200 Climbing Boston Center
Tue 05:49:38 PM 42.3336 -71.4431 247° West 419 482 30,000  Level Boston Center
Tue 05:50:38 PM 42.2847 -71.5897 246° West 419 482 30,000 450 Level Boston Center
Tue 05:51:38 PM 42.2397 -71.7361 247° West 424 488 30,900 1,700 Climbing Boston Center
Tue 05:52:38 PM 42.1947 -71.8825 248° West 430 495 33,400 1,550 Climbing Boston Center
Tue 05:53:38 PM 42.1494 -72.0283 247° West 425 489 34,000 300 Climbing Boston Center
Tue 05:54:38 PM 42.0958 -72.1714 243° Southwest 425 489 34,000  Level Boston Center
Tue 05:55:38 PM 42.0231 -72.2975 232° Southwest 430 495 34,000  Level Boston Center
Tue 05:56:38 PM 41.9503 -72.4233 232° Southwest 430 495 34,000  Level Boston Center
Tue 05:57:38 PM 41.8772 -72.5489 232° Southwest 435 501 34,000  Level Boston Center
Tue 05:58:38 PM 41.8019 -72.6825 233° Southwest 435 501 34,000  Level Boston Center
Tue 05:59:38 PM 41.7350 -72.7989 232° Southwest 435 501 34,000  Level Boston Center
Tue 06:00:38 PM 41.6636 -72.9264 233° Southwest 435 501 34,000  Level Boston Center
Tue 06:01:38 PM 41.5922 -73.0508 233° Southwest 435 501 34,000  Level Boston Center
Tue 06:02:38 PM 41.5247 -73.1664 232° Southwest 435 501 34,000  Level Boston Center
Tue 06:04:28 PM 41.3928 -73.3956 233° Southwest 428 493 34,000  Level New York Center
Tue 06:05:29 PM 41.3211 -73.5200 233° Southwest 433 498 34,000  Level New York Center
Tue 06:06:30 PM 41.2497 -73.6411 232° Southwest 433 498 34,000  Level New York Center
Tue 06:07:28 PM 41.1736 -73.7675 231° Southwest 433 498 34,000  Level New York Center
Tue 06:08:29 PM 41.0994 -73.8908 231° Southwest 433 498 34,000  Level New York Center
Tue 06:09:29 PM 41.0275 -74.0139 232° Southwest 433 498 34,000 -712 Level New York Center
Tue 06:10:27 PM 40.9533 -74.1367 231° Southwest 433 498 32,600 -1,950 Descending New York Center
Tue 06:11:29 PM 40.8703 -74.2669 230° Southwest 433 498 30,100 -2,213 Descending New York Center
Tue 06:12:29 PM 40.8022 -74.3842 233° Southwest 423 487 28,100 -1,041 Descending New York Center
Tue 06:13:30 PM 40.7319 -74.4981 231° Southwest 412 474 28,000 -50 Descending New York Center
Tue 06:14:28 PM 40.6594 -74.6172 231° Southwest 412 474 28,000  Level New York Center
Tue 06:15:29 PM 40.5867 -74.7336 231° Southwest 412 474 28,000  Level New York Center
Tue 06:16:28 PM 40.5100 -74.8436 228° Southwest 417 480 28,000 -650 Level New York Center
Tue 06:17:29 PM 40.4333 -74.9564 228° Southwest 417 480 26,700 -1,820 Descending New York Center
Tue 06:18:30 PM 40.3564 -75.0661 227° Southwest 422 486 24,300 -2,471 Descending New York Center
Tue 06:19:28 PM 40.2772 -75.1756 227° Southwest 428 493 21,800 -1,678 Descending New York Center
Tue 06:20:28 PM 40.2003 -75.2819 227° Southwest 422 486 21,000 -393 Descending New York Center
Tue 06:21:30 PM 40.1253 -75.3858 227° Southwest 406 467 21,000  Level New York Center
Tue 06:22:28 PM 40.0503 -75.4919 227° Southwest 406 467 21,000  Level New York Center
Tue 06:23:28 PM 39.9750 -75.5981 227° Southwest 406 467 21,000 -545 Level New York Center
Tue 06:24:29 PM 39.9039 -75.7039 229° Southwest 401 461 19,900 -1,574 Descending New York Center
Tue 06:25:30 PM 39.8456 -75.8081 234° Southwest 401 461 17,800 -2,269 Descending New York Center
Tue 06:26:28 PM 39.7906 -75.9175 237° Southwest 380 437 15,400 -2,070 Descending New York Center
Tue 06:28:21 PM 39.6667 -76.1333 233° Southwest 329 379 11,900 -1,630 Descending Potomac TRACON
Tue 06:29:21 PM 39.6333 -76.2167 243° Southwest 297 342 10,700 -1,211 Descending Potomac TRACON
Tue 06:30:15 PM 39.6000 -76.3000 243° Southwest 285 328 9,600 -1,450 Descending Potomac TRACON
Tue 06:31:21 PM 39.5667 -76.4000 247° West 280 322 7,800 -1,587 Descending Potomac TRACON
Tue 06:32:16 PM 39.5333 -76.5000 247° West 286 329 6,400 -1,461 Descending Potomac TRACON
Tue 06:33:16 PM 39.5000 -76.5833 243° Southwest 281 323 5,000 -1,200 Descending Potomac TRACON
Tue 06:34:16 PM 39.4667 -76.6667 243° Southwest 281 323 4,000 -500 Descending Potomac TRACON
Tue 06:35:16 PM 39.4167 -76.7500 232° Southwest 277 319 4,000  Level Potomac TRACON
Tue 06:36:16 PM 39.3667 -76.8167 226° Southwest 278 320 4,000  Level Potomac TRACON
Tue 06:37:11 PM 39.3167 -76.9000 232° Southwest 279 321 4,000 -50 Level Potomac TRACON
Tue 06:38:17 PM 39.2667 -76.9667 226° Southwest 261 300 3,900 -619 Descending Potomac TRACON
Tue 06:39:17 PM 39.2000 -76.9333 159° South 240 276 2,700 -850 Descending Potomac TRACON
Tue 06:40:17 PM 39.1833 -76.8667 108° East 214 246 2,200 -632 Descending Potomac TRACON
Tue 06:41:11 PM 39.1833 -76.8000 90° East 190 219 1,500 -526 Descending Potomac TRACON
Tue 06:42:11 PM 39.1833 -76.7500 90° East 125 144 1,200 -500 Descending Potomac TRACON
Tue 06:43:11 PM 39.1833 -76.7167 90° East 124 143 500 -700 Descending Potomac TRACON

Login

Don't have an account? Register now (free) for customized features, flight alerts, and more!